createdAt,value
2023-05-15T00:02:34.217Z,6.00
2023-05-15T00:07:31.501Z,4.35
2023-05-15T00:12:28.525Z,4.35
2023-05-15T00:17:26.467Z,4.80
2023-05-15T00:22:23.513Z,4.40
2023-05-15T00:27:20.447Z,4.75
2023-05-15T00:32:17.247Z,4.50
2023-05-15T00:37:15.588Z,4.97
2023-05-15T00:42:13.361Z,5.13
2023-05-15T00:47:10.878Z,5.03
2023-05-15T00:52:08.164Z,4.88
2023-05-15T00:57:06.771Z,4.50
2023-05-15T01:02:04.077Z,5.55
2023-05-15T01:07:01.516Z,4.70
2023-05-15T01:12:00.536Z,5.88
2023-05-15T01:16:58.079Z,4.60
2023-05-15T01:22:25.448Z,5.60
2023-05-15T01:27:30.165Z,4.47
2023-05-15T01:32:34.211Z,4.67
2023-05-15T01:37:34.402Z,4.85
2023-05-15T01:42:34.726Z,4.40
2023-05-15T01:47:36.979Z,4.18
2023-05-15T01:52:36.846Z,3.78
2023-05-15T01:57:35.848Z,3.75
2023-05-15T02:02:33.350Z,3.40
2023-05-15T02:07:32.598Z,3.40
2023-05-15T02:12:31.646Z,3.38
2023-05-15T02:17:29.221Z,3.10
2023-05-15T02:22:25.998Z,3.80
2023-05-15T02:27:26.608Z,3.08
2023-05-15T02:32:33.518Z,3.45
2023-05-15T02:37:33.564Z,3.00
2023-05-15T02:42:31.849Z,4.20
2023-05-15T02:47:30.926Z,4.00
2023-05-15T02:52:27.847Z,4.32
2023-05-15T02:57:24.777Z,3.78
2023-05-15T03:02:21.517Z,4.85
2023-05-15T03:07:19.173Z,5.00
2023-05-15T03:12:16.629Z,4.95
2023-05-15T03:17:13.464Z,5.72
2023-05-15T03:22:10.367Z,5.10
2023-05-15T03:27:08.402Z,5.47
2023-05-15T03:32:05.777Z,6.40
2023-05-15T03:37:03.022Z,6.95
2023-05-15T03:41:59.839Z,6.50
2023-05-15T03:46:57.348Z,5.63
2023-05-15T03:51:54.327Z,5.40
2023-05-15T03:56:51.172Z,5.57
2023-05-15T04:02:02.930Z,5.30
2023-05-15T04:07:03.098Z,5.82
2023-05-15T04:11:59.914Z,5.03
2023-05-15T04:17:05.209Z,6.43
2023-05-15T04:26:59.324Z,6.70
2023-05-15T04:32:33.358Z,5.70
2023-05-15T04:37:44.882Z,6.07
2023-05-15T04:42:42.721Z,5.60
2023-05-15T04:47:39.542Z,6.10
2023-05-15T04:53:10.044Z,5.45
2023-05-15T04:58:11.363Z,4.60
2023-05-15T05:03:08.260Z,4.57
2023-05-15T05:08:08.177Z,5.38
2023-05-15T05:13:22.816Z,5.50
2023-05-15T05:18:34.570Z,5.15
2023-05-15T05:23:35.566Z,6.28
2023-05-15T05:28:35.724Z,5.85
2023-05-15T05:33:32.614Z,4.93
2023-05-15T05:38:43.962Z,3.95
2023-05-15T05:44:00.214Z,4.13
2023-05-15T05:48:59.298Z,2.67
2023-05-15T05:53:56.177Z,3.50
2023-05-15T05:58:53.759Z,2.90
2023-05-15T06:04:22.896Z,3.05
2023-05-15T06:09:25.914Z,3.42
2023-05-15T06:14:23.649Z,2.83
2023-05-15T06:19:21.223Z,3.20
2023-05-15T06:24:32.853Z,3.88
2023-05-15T06:29:40.421Z,3.03
2023-05-15T06:34:43.026Z,3.90
2023-05-15T06:40:09.103Z,2.67
2023-05-15T06:45:08.194Z,2.83
2023-05-15T06:50:07.393Z,2.67
2023-05-15T06:55:05.930Z,2.72
2023-05-15T07:00:26.877Z,2.50
2023-05-15T07:05:40.472Z,2.78
2023-05-15T07:10:37.315Z,2.88
2023-05-15T07:15:35.177Z,2.78
2023-05-15T07:20:34.286Z,3.13
2023-05-15T07:25:34.380Z,2.97
2023-05-15T07:30:32.990Z,2.70
2023-05-15T07:35:30.633Z,3.10
2023-05-15T07:40:30.277Z,3.22
2023-05-15T07:46:00.981Z,3.38
2023-05-15T07:51:01.829Z,2.75
2023-05-15T07:55:59.919Z,2.97
2023-05-15T08:01:00.838Z,3.20
2023-05-15T08:06:26.778Z,3.85
2023-05-15T08:11:23.643Z,3.30
2023-05-15T08:16:20.415Z,2.80
2023-05-15T08:21:17.968Z,3.38
2023-05-15T08:26:15.752Z,3.95
2023-05-15T08:31:12.688Z,3.53
2023-05-15T08:36:27.757Z,3.55
2023-05-15T08:46:36.334Z,2.85
2023-05-15T08:51:43.960Z,3.60
2023-05-15T08:57:10.839Z,2.88
2023-05-15T09:02:11.622Z,2.92
2023-05-15T09:07:10.728Z,3.38
2023-05-15T09:12:14.083Z,3.00
2023-05-15T09:17:11.188Z,3.28
2023-05-15T09:22:16.313Z,3.08
2023-05-15T09:27:14.083Z,2.95
2023-05-15T09:32:21.185Z,3.65
2023-05-15T09:37:33.267Z,3.30
2023-05-15T09:42:54.872Z,2.70
2023-05-15T09:47:54.759Z,3.00
2023-05-15T09:53:02.135Z,2.75
2023-05-15T09:58:26.892Z,2.50
2023-05-15T10:03:24.770Z,2.92
2023-05-15T10:08:27.009Z,2.65
2023-05-15T10:13:29.822Z,3.10
2023-05-15T10:18:30.241Z,2.67
2023-05-15T10:23:29.159Z,3.10
2023-05-15T10:28:28.329Z,2.90
2023-05-15T10:33:26.478Z,3.10
2023-05-15T10:38:24.914Z,2.50
2023-05-15T10:43:46.080Z,4.28
2023-05-15T10:48:45.749Z,2.08
2023-05-15T10:53:43.341Z,2.83
2023-05-15T10:58:46.652Z,4.18
2023-05-15T11:03:49.474Z,3.08
2023-05-15T11:08:47.836Z,2.60
2023-05-15T11:14:16.859Z,2.00
2023-05-15T11:19:23.284Z,2.70
2023-05-15T11:24:21.794Z,2.25
2023-05-15T11:29:19.143Z,2.90
2023-05-15T11:34:28.465Z,2.22
2023-05-15T11:39:26.396Z,2.28
2023-05-15T11:44:24.242Z,3.00
2023-05-15T11:49:22.628Z,2.85
2023-05-15T11:54:20.705Z,3.85
2023-05-15T11:59:21.554Z,3.13
2023-05-15T12:04:19.549Z,3.15
2023-05-15T12:09:19.375Z,2.20
2023-05-15T12:14:16.463Z,2.10
2023-05-15T12:19:15.229Z,2.45
2023-05-15T12:24:27.680Z,2.30
2023-05-15T12:29:28.859Z,2.20
2023-05-15T12:34:37.692Z,2.63
2023-05-15T12:39:35.653Z,3.63
2023-05-15T12:44:34.414Z,3.60
2023-05-15T12:49:35.764Z,3.00
2023-05-15T12:54:43.697Z,3.58
2023-05-15T13:00:02.537Z,2.72
2023-05-15T13:05:05.360Z,3.13
2023-05-15T13:10:04.645Z,3.25
2023-05-15T13:15:04.977Z,2.90
2023-05-15T13:20:14.654Z,3.55
2023-05-15T13:25:11.866Z,3.47
2023-05-15T13:30:10.596Z,2.47
2023-05-15T13:35:09.762Z,2.50
2023-05-15T13:40:09.832Z,2.13
2023-05-15T13:45:08.909Z,2.80
2023-05-15T13:50:09.844Z,2.28
2023-05-15T13:55:10.895Z,2.10
2023-05-15T14:00:11.542Z,3.53
2023-05-15T14:05:08.996Z,2.40
2023-05-15T14:10:07.966Z,3.35
2023-05-15T14:15:05.839Z,2.78
2023-05-15T14:20:09.466Z,2.38
2023-05-15T14:25:08.912Z,2.53
2023-05-15T14:30:09.973Z,2.80
2023-05-15T14:35:07.267Z,2.63
2023-05-15T14:40:06.420Z,2.47
2023-05-15T14:45:07.921Z,3.00
2023-05-15T14:50:05.419Z,2.33
2023-05-15T15:00:05.681Z,2.30
2023-05-15T15:05:07.405Z,2.92
2023-05-15T15:10:05.130Z,2.53
2023-05-15T15:15:04.885Z,2.55
2023-05-15T15:20:06.489Z,2.38
2023-05-15T15:25:05.314Z,2.40
2023-05-15T15:30:04.084Z,2.75
2023-05-15T15:35:03.327Z,2.63
2023-05-15T15:40:02.432Z,2.58
2023-05-15T15:44:59.917Z,2.70
2023-05-15T15:49:56.691Z,2.70
2023-05-15T15:54:53.909Z,2.80
2023-05-15T15:59:52.318Z,2.50
2023-05-15T16:04:49.958Z,2.45
2023-05-15T16:09:51.404Z,3.17
2023-05-15T16:15:06.861Z,3.13
2023-05-15T16:20:11.806Z,3.92
2023-05-15T16:25:09.092Z,2.90
2023-05-15T16:30:08.657Z,2.65
2023-05-15T16:35:07.106Z,2.72
2023-05-15T16:40:04.587Z,3.85
2023-05-15T16:45:01.425Z,3.30
2023-05-15T16:49:59.039Z,3.30
2023-05-15T16:54:55.856Z,3.33
2023-05-15T16:59:55.373Z,3.10
2023-05-15T17:04:52.712Z,3.05
2023-05-15T17:09:50.451Z,3.00
2023-05-15T17:14:47.298Z,2.70
2023-05-15T17:19:44.160Z,3.33
2023-05-15T17:24:50.732Z,3.05
2023-05-15T17:29:49.369Z,2.80
2023-05-15T17:34:46.768Z,2.67
2023-05-15T17:39:43.667Z,2.92
2023-05-15T17:44:40.457Z,3.15
2023-05-15T17:49:38.399Z,2.92
2023-05-15T17:54:35.284Z,2.70
2023-05-15T17:59:32.395Z,2.90
2023-05-15T18:04:29.290Z,3.30
2023-05-15T18:09:31.090Z,2.92
2023-05-15T18:14:27.947Z,2.97
2023-05-15T18:19:25.040Z,3.45
2023-05-15T18:24:22.047Z,3.50
2023-05-15T18:29:19.684Z,3.33
2023-05-15T18:34:16.643Z,3.50
2023-05-15T18:39:14.905Z,3.08
2023-05-15T18:44:11.677Z,3.17
2023-05-15T18:49:09.306Z,2.95
2023-05-15T18:54:06.486Z,2.95
2023-05-15T18:59:03.292Z,3.83
2023-05-15T19:04:00.264Z,3.47
2023-05-15T19:08:57.938Z,3.67
2023-05-15T19:13:54.820Z,3.75
2023-05-15T19:18:51.685Z,4.50
2023-05-15T19:23:50.467Z,3.50
2023-05-15T19:28:47.962Z,3.72
2023-05-15T19:33:45.163Z,4.20
2023-05-15T19:38:42.541Z,4.30
2023-05-15T19:43:39.390Z,4.97
2023-05-15T19:48:37.048Z,5.32
2023-05-15T19:53:33.815Z,4.45
2023-05-15T19:58:31.273Z,5.05
2023-05-15T20:03:32.158Z,4.78
2023-05-15T20:08:29.974Z,4.22
2023-05-15T20:13:27.344Z,4.30
2023-05-15T20:18:24.339Z,4.05
2023-05-15T20:23:21.595Z,4.38
2023-05-15T20:28:19.365Z,5.13
2023-05-15T20:33:16.530Z,4.68
2023-05-15T20:38:13.924Z,3.95
2023-05-15T20:43:10.965Z,3.78
2023-05-15T20:48:10.352Z,4.00
2023-05-15T20:53:07.591Z,3.80
2023-05-15T20:58:04.453Z,3.85
2023-05-15T21:03:01.640Z,3.47
2023-05-15T21:07:59.354Z,4.95
2023-05-15T21:12:59.014Z,3.75
2023-05-15T21:17:56.403Z,5.32
2023-05-15T21:22:53.205Z,4.32
2023-05-15T21:27:50.770Z,4.85
2023-05-15T21:32:47.707Z,4.07
2023-05-15T21:37:44.719Z,5.03
2023-05-15T21:42:42.445Z,5.00
2023-05-15T21:47:40.083Z,4.47
2023-05-15T21:52:36.981Z,5.35
2023-05-15T21:57:33.840Z,5.13
2023-05-15T22:02:30.700Z,5.47
2023-05-15T22:07:28.183Z,6.05
2023-05-15T22:12:24.951Z,5.47
2023-05-15T22:17:23.413Z,4.47
2023-05-15T22:22:20.736Z,4.72
2023-05-15T22:27:18.306Z,3.92
2023-05-15T22:32:15.064Z,4.15
2023-05-15T22:37:12.418Z,3.65
2023-05-15T22:42:09.298Z,3.75
2023-05-15T22:47:07.097Z,3.80
2023-05-15T22:52:04.338Z,3.35
2023-05-15T22:57:01.097Z,3.78
2023-05-15T23:01:58.168Z,4.10
2023-05-15T23:06:55.722Z,3.55
2023-05-15T23:11:52.453Z,4.13
2023-05-15T23:16:49.416Z,3.80
2023-05-15T23:21:46.258Z,4.28
2023-05-15T23:26:43.963Z,4.03
2023-05-15T23:31:42.332Z,4.60
2023-05-15T23:36:39.270Z,3.30
2023-05-15T23:41:36.048Z,4.18
2023-05-15T23:46:34.869Z,3.97
2023-05-15T23:51:31.864Z,4.60
2023-05-15T23:56:28.682Z,4.20
